createdAt,value
2018-11-10T00:01:23.835Z,23.98
2018-11-10T00:03:51.921Z,39.85
2018-11-10T00:06:20.010Z,27.98
2018-11-10T00:08:48.085Z,26.73
2018-11-10T00:11:16.160Z,38.73
2018-11-10T00:13:44.277Z,31.77
2018-11-10T00:16:12.361Z,31.17
2018-11-10T00:18:40.429Z,32.95
2018-11-10T00:21:08.492Z,31.33
2018-11-10T00:23:36.573Z,27.40
2018-11-10T00:26:04.805Z,30.25
2018-11-10T00:28:32.860Z,31.07
2018-11-10T00:31:00.925Z,27.73
2018-11-10T00:33:29.000Z,26.80
2018-11-10T00:35:57.065Z,23.27
2018-11-10T00:38:25.129Z,23.65
2018-11-10T00:40:53.209Z,27.60
2018-11-10T00:43:21.260Z,23.00
2018-11-10T00:45:49.329Z,28.20
2018-11-10T00:48:17.381Z,21.62
2018-11-10T00:50:45.484Z,28.10
2018-11-10T00:53:13.533Z,17.70
2018-11-10T00:55:41.636Z,21.25
2018-11-10T00:58:09.701Z,22.35
2018-11-10T01:00:37.769Z,18.90
2018-11-10T01:03:06.009Z,26.30
2018-11-10T01:05:34.090Z,28.55
2018-11-10T01:08:02.146Z,21.75
2018-11-10T01:10:30.204Z,22.50
2018-11-10T01:12:58.265Z,25.08
2018-11-10T01:15:26.357Z,25.02
2018-11-10T01:17:54.437Z,29.37
2018-11-10T01:20:22.496Z,18.42
2018-11-10T01:22:50.567Z,26.05
2018-11-10T01:25:18.637Z,21.15
2018-11-10T01:27:46.821Z,25.05
2018-11-10T01:30:15.888Z,19.98
2018-11-10T01:32:44.996Z,19.27
2018-11-10T01:35:13.497Z,27.90
2018-11-10T01:37:41.617Z,30.05
2018-11-10T01:40:11.201Z,27.30
2018-11-10T01:42:39.282Z,25.48
2018-11-10T01:45:09.413Z,24.60
2018-11-10T01:47:37.501Z,29.18
2018-11-10T01:50:06.133Z,25.43
2018-11-10T01:52:34.197Z,21.37
2018-11-10T01:55:02.257Z,23.10
2018-11-10T01:57:30.339Z,33.65
2018-11-10T01:59:58.412Z,34.58
2018-11-10T02:02:26.458Z,24.43
2018-11-10T02:04:54.517Z,24.12
2018-11-10T02:07:22.590Z,26.07
2018-11-10T02:09:50.745Z,24.70
2018-11-10T02:12:18.826Z,26.30
2018-11-10T02:14:46.897Z,27.05
2018-11-10T02:17:14.963Z,33.38
2018-11-10T02:19:43.037Z,29.63
2018-11-10T02:22:11.106Z,28.60
2018-11-10T02:24:39.173Z,25.45
2018-11-10T02:27:13.548Z,24.75
2018-11-10T02:29:41.621Z,25.77
2018-11-10T02:32:09.684Z,24.72
2018-11-10T02:34:37.766Z,29.35
2018-11-10T02:37:06.053Z,20.43
2018-11-10T02:39:34.121Z,29.42
2018-11-10T02:42:08.881Z,24.60
2018-11-10T02:44:36.945Z,23.07
2018-11-10T02:47:05.149Z,20.68
2018-11-10T02:49:33.336Z,27.48
2018-11-10T02:52:01.406Z,25.80
2018-11-10T02:54:29.465Z,23.32
2018-11-10T02:56:57.533Z,36.65
2018-11-10T02:59:25.589Z,15.85
2018-11-10T03:01:53.809Z,16.23
2018-11-10T03:04:22.054Z,23.90
2018-11-10T03:06:50.120Z,20.37
2018-11-10T03:09:18.181Z,23.32
2018-11-10T03:11:46.249Z,14.38
2018-11-10T03:14:14.301Z,25.00
2018-11-10T03:16:42.369Z,22.67
2018-11-10T03:19:10.421Z,23.00
2018-11-10T03:21:38.520Z,19.20
2018-11-10T03:24:06.590Z,26.73
2018-11-10T03:26:34.648Z,16.73
2018-11-10T03:29:02.711Z,17.15
2018-11-10T03:31:30.778Z,18.60
2018-11-10T03:33:58.842Z,20.80
2018-11-10T03:36:26.892Z,23.92
2018-11-10T03:38:54.948Z,23.77
2018-11-10T03:41:23.012Z,22.25
2018-11-10T03:43:51.069Z,23.38
2018-11-10T03:46:19.132Z,22.65
2018-11-10T03:48:47.272Z,22.87
2018-11-10T03:51:15.255Z,27.30
2018-11-10T03:53:43.305Z,21.15
2018-11-10T03:56:11.373Z,22.30
2018-11-10T03:58:39.428Z,22.82
2018-11-10T04:01:07.489Z,21.62
2018-11-10T04:03:35.549Z,18.50
2018-11-10T04:06:03.633Z,24.27
2018-11-10T04:08:31.693Z,15.28
2018-11-10T04:10:59.745Z,16.50
2018-11-10T04:13:27.804Z,15.35
2018-11-10T04:15:55.869Z,18.23
2018-11-10T04:18:23.945Z,19.00
2018-11-10T04:20:52.016Z,20.37
2018-11-10T04:23:20.064Z,15.00
2018-11-10T04:25:48.132Z,22.07
2018-11-10T04:28:16.200Z,23.40
2018-11-10T04:30:44.874Z,22.10
2018-11-10T04:33:12.933Z,19.15
2018-11-10T04:35:40.997Z,20.10
2018-11-10T04:38:09.064Z,22.60
2018-11-10T04:40:37.120Z,16.95
2018-11-10T04:43:05.438Z,19.57
2018-11-10T04:45:33.496Z,22.58
2018-11-10T04:48:01.560Z,18.20
2018-11-10T04:50:29.620Z,22.85
2018-11-10T04:52:57.692Z,22.60
2018-11-10T04:55:25.749Z,19.12
2018-11-10T04:57:53.812Z,20.32
2018-11-10T05:00:21.879Z,22.37
2018-11-10T05:02:49.945Z,21.62
2018-11-10T05:05:18.023Z,20.90
2018-11-10T05:07:46.089Z,26.75
2018-11-10T05:10:14.157Z,20.55
2018-11-10T05:12:42.225Z,27.58
2018-11-10T05:15:11.768Z,23.18
2018-11-10T05:17:39.898Z,21.17
2018-11-10T05:20:07.985Z,26.65
2018-11-10T05:22:36.068Z,22.73
2018-11-10T05:25:04.526Z,21.33
2018-11-10T05:27:32.696Z,23.65
2018-11-10T05:30:00.802Z,16.57
2018-11-10T05:32:28.872Z,23.77
2018-11-10T05:34:56.948Z,38.53
2018-11-10T05:37:25.040Z,30.48
2018-11-10T05:39:53.144Z,37.03
2018-11-10T05:42:21.247Z,28.20
2018-11-10T05:44:49.325Z,26.55
2018-11-10T05:47:17.404Z,17.75
2018-11-10T05:49:45.481Z,25.62
2018-11-10T05:52:13.662Z,27.27
2018-11-10T05:54:41.743Z,17.32
2018-11-10T05:57:09.878Z,32.33
2018-11-10T05:59:37.939Z,26.37
2018-11-10T06:02:06.217Z,24.65
2018-11-10T06:04:34.292Z,25.10
2018-11-10T06:07:02.372Z,26.10
2018-11-10T06:09:30.497Z,27.02
2018-11-10T06:11:58.547Z,18.77
2018-11-10T06:14:26.632Z,25.85
2018-11-10T06:16:54.741Z,33.23
2018-11-10T06:19:22.829Z,28.23
2018-11-10T06:21:51.748Z,24.82
2018-11-10T06:24:19.832Z,20.68
2018-11-10T06:26:47.924Z,27.00
2018-11-10T06:29:16.009Z,26.37
2018-11-10T06:31:44.133Z,21.23
2018-11-10T06:34:12.215Z,29.75
2018-11-10T06:36:40.314Z,24.43
2018-11-10T06:39:09.625Z,30.25
2018-11-10T06:41:37.737Z,24.85
2018-11-10T06:44:05.889Z,30.55
2018-11-10T06:46:33.985Z,24.57
2018-11-10T06:49:02.082Z,50.03
2018-11-10T06:51:30.177Z,25.00
2018-11-10T06:53:58.257Z,24.52
2018-11-10T06:56:26.397Z,30.37
2018-11-10T06:58:54.496Z,30.80
2018-11-10T07:01:22.681Z,29.12
2018-11-10T07:03:50.881Z,31.97
2018-11-10T07:06:18.969Z,33.55
2018-11-10T07:08:47.101Z,31.70
2018-11-10T07:11:15.180Z,35.95
2018-11-10T07:13:43.273Z,33.95
2018-11-10T07:16:11.701Z,32.10
2018-11-10T07:18:39.777Z,33.35
2018-11-10T07:21:07.849Z,23.80
2018-11-10T07:23:35.926Z,42.00
2018-11-10T07:26:04.021Z,35.43
2018-11-10T07:28:32.093Z,33.40
2018-11-10T07:31:00.185Z,33.80
2018-11-10T07:33:28.283Z,30.05
2018-11-10T07:35:56.357Z,37.00
2018-11-10T07:38:24.453Z,32.08
2018-11-10T07:40:52.527Z,34.53
2018-11-10T07:43:20.597Z,33.70
2018-11-10T07:45:48.660Z,37.28
2018-11-10T07:48:16.736Z,37.48
2018-11-10T07:50:44.800Z,45.43
2018-11-10T07:53:12.979Z,28.57
2018-11-10T07:55:41.056Z,33.92
2018-11-10T07:58:09.106Z,40.67
2018-11-10T08:00:37.177Z,32.20
2018-11-10T08:03:05.281Z,42.60
2018-11-10T08:05:34.213Z,32.65
2018-11-10T08:08:02.312Z,27.20
2018-11-10T08:10:30.389Z,33.55
2018-11-10T08:12:58.472Z,32.78
2018-11-10T08:15:26.540Z,31.77
2018-11-10T08:17:54.632Z,39.50
2018-11-10T08:20:22.722Z,32.80
2018-11-10T08:22:50.813Z,34.60
2018-11-10T08:25:18.908Z,31.77
2018-11-10T08:27:46.997Z,32.55
2018-11-10T08:30:15.294Z,44.03
2018-11-10T08:32:43.776Z,37.17
2018-11-10T08:35:12.802Z,29.87
2018-11-10T08:37:40.882Z,31.82
2018-11-10T08:40:11.421Z,36.93
2018-11-10T08:42:39.512Z,39.30
2018-11-10T08:45:08.521Z,24.25
2018-11-10T08:47:36.625Z,33.58
2018-11-10T08:50:05.656Z,31.73
2018-11-10T08:52:33.749Z,40.80
2018-11-10T08:55:01.833Z,25.90
2018-11-10T08:57:29.968Z,43.08
2018-11-10T08:59:58.012Z,28.40
2018-11-10T09:02:26.092Z,31.75
2018-11-10T09:04:54.181Z,34.45
2018-11-10T09:07:22.397Z,29.72
2018-11-10T09:09:50.553Z,29.00
2018-11-10T09:12:18.584Z,29.05
2018-11-10T09:14:46.685Z,40.90
2018-11-10T09:17:14.781Z,39.78
2018-11-10T09:19:42.897Z,42.90
2018-11-10T09:22:10.988Z,33.85
2018-11-10T09:24:39.070Z,34.67
2018-11-10T09:27:07.173Z,30.25
2018-11-10T09:29:35.260Z,35.08
2018-11-10T09:32:03.372Z,32.45
2018-11-10T09:34:31.452Z,42.13
2018-11-10T09:36:59.556Z,42.45
2018-11-10T09:39:27.628Z,33.15
2018-11-10T09:41:55.835Z,38.02
2018-11-10T09:44:23.937Z,34.45
2018-11-10T09:46:52.030Z,36.45
2018-11-10T09:49:20.137Z,36.40
2018-11-10T09:51:48.229Z,38.75
2018-11-10T09:54:16.357Z,40.15
2018-11-10T09:56:44.445Z,42.90
2018-11-10T09:59:12.549Z,32.13
2018-11-10T10:01:40.897Z,27.25
2018-11-10T10:04:08.857Z,37.48
2018-11-10T10:06:37.052Z,24.30
2018-11-10T10:09:07.335Z,31.17
2018-11-10T10:11:35.489Z,32.85
2018-11-10T10:14:03.829Z,36.48
2018-11-10T10:16:31.921Z,27.70
2018-11-10T10:18:59.984Z,33.50
2018-11-10T10:21:28.045Z,25.50
2018-11-10T10:23:56.113Z,35.65
2018-11-10T10:26:24.184Z,30.27
2018-11-10T10:28:52.289Z,35.35
2018-11-10T10:31:20.341Z,37.83
2018-11-10T10:33:48.405Z,39.38
2018-11-10T10:36:16.509Z,28.95
2018-11-10T10:38:44.676Z,33.38
2018-11-10T10:41:12.784Z,33.63
2018-11-10T10:43:40.857Z,29.63
2018-11-10T10:46:09.009Z,29.35
2018-11-10T10:48:37.138Z,27.93
2018-11-10T10:51:05.897Z,32.30
2018-11-10T10:53:33.955Z,23.10
2018-11-10T10:56:02.126Z,34.18
2018-11-10T10:58:30.133Z,30.50
2018-11-10T11:01:03.733Z,22.82
2018-11-10T11:03:37.185Z,33.48
2018-11-10T11:06:05.293Z,24.98
2018-11-10T11:08:33.364Z,28.38
2018-11-10T11:11:01.433Z,32.15
2018-11-10T11:13:29.500Z,34.92
2018-11-10T11:15:57.565Z,26.62
2018-11-10T11:18:25.669Z,28.00
2018-11-10T11:20:53.773Z,24.77
2018-11-10T11:23:21.865Z,26.77
2018-11-10T11:25:49.948Z,34.90
2018-11-10T11:28:18.053Z,37.78
2018-11-10T11:30:46.150Z,31.10
2018-11-10T11:33:14.357Z,26.93
2018-11-10T11:35:42.451Z,33.13
2018-11-10T11:38:10.536Z,26.60
2018-11-10T11:40:38.624Z,33.30
2018-11-10T11:43:06.768Z,26.75
2018-11-10T11:45:34.854Z,25.02
2018-11-10T11:48:02.944Z,32.65
2018-11-10T11:50:31.157Z,31.40
2018-11-10T11:52:59.256Z,31.77
2018-11-10T11:55:27.332Z,31.65
2018-11-10T11:57:55.604Z,24.45
2018-11-10T12:00:23.570Z,27.90
2018-11-10T12:02:51.697Z,33.42
2018-11-10T12:05:19.774Z,31.68
2018-11-10T12:07:47.868Z,30.08
2018-11-10T12:10:16.645Z,28.55
2018-11-10T12:12:44.730Z,26.73
2018-11-10T12:15:14.086Z,27.60
2018-11-10T12:17:42.116Z,25.90
2018-11-10T12:20:12.368Z,25.15
2018-11-10T12:22:40.752Z,30.82
2018-11-10T12:25:09.871Z,26.30
2018-11-10T12:27:37.938Z,28.32
2018-11-10T12:30:07.110Z,29.10
2018-11-10T12:32:35.169Z,31.55
2018-11-10T12:35:03.408Z,22.32
2018-11-10T12:37:31.620Z,22.50
2018-11-10T12:39:59.689Z,29.77
2018-11-10T12:42:27.744Z,18.15
2018-11-10T12:44:55.856Z,21.17
2018-11-10T12:47:23.938Z,24.87
2018-11-10T12:49:52.009Z,25.32
2018-11-10T12:52:20.146Z,25.50
2018-11-10T12:54:48.197Z,21.82
2018-11-10T12:57:16.220Z,23.10
2018-11-10T12:59:44.290Z,19.95
2018-11-10T13:02:12.362Z,21.62
2018-11-10T13:04:40.430Z,27.65
2018-11-10T13:07:08.551Z,27.85
2018-11-10T13:09:36.572Z,18.62
2018-11-10T13:12:05.118Z,20.17
2018-11-10T13:14:33.215Z,28.52
2018-11-10T13:17:01.253Z,24.35
2018-11-10T13:19:29.336Z,21.68
2018-11-10T13:21:57.432Z,23.50
2018-11-10T13:24:25.527Z,24.80
2018-11-10T13:26:53.621Z,20.05
2018-11-10T13:29:21.704Z,22.32
2018-11-10T13:31:49.850Z,20.12
2018-11-10T13:34:17.877Z,24.70
2018-11-10T13:36:45.957Z,20.12
2018-11-10T13:39:14.092Z,18.82
2018-11-10T13:41:42.128Z,12.28
2018-11-10T13:44:10.230Z,14.70
2018-11-10T13:46:38.304Z,17.10
2018-11-10T13:49:06.385Z,18.77
2018-11-10T13:51:34.604Z,24.30
2018-11-10T13:54:02.562Z,14.03
2018-11-10T13:56:30.637Z,16.00
2018-11-10T13:58:58.722Z,11.65
2018-11-10T14:01:27.025Z,14.10
2018-11-10T14:03:55.110Z,14.58
2018-11-10T14:06:23.211Z,15.60
2018-11-10T14:08:51.309Z,12.90
2018-11-10T14:11:19.393Z,12.37
2018-11-10T14:13:47.484Z,13.45
2018-11-10T14:16:15.561Z,14.35
2018-11-10T14:18:43.644Z,16.35
2018-11-10T14:21:11.724Z,14.63
2018-11-10T14:23:39.810Z,11.38
2018-11-10T14:26:07.915Z,18.05
2018-11-10T14:28:35.978Z,10.18
2018-11-10T14:31:04.072Z,17.80
2018-11-10T14:33:32.152Z,13.35
2018-11-10T14:36:00.237Z,8.95
2018-11-10T14:38:28.317Z,17.60
2018-11-10T14:40:56.436Z,15.18
2018-11-10T14:43:24.516Z,13.03
2018-11-10T14:45:52.609Z,13.05
2018-11-10T14:48:20.687Z,13.20
2018-11-10T14:50:48.783Z,16.00
2018-11-10T14:53:16.972Z,18.65
2018-11-10T14:55:44.968Z,11.55
2018-11-10T14:58:13.048Z,12.45
2018-11-10T15:00:41.152Z,11.93
2018-11-10T15:03:09.229Z,13.00
2018-11-10T15:05:37.351Z,14.85
2018-11-10T15:08:05.933Z,15.53
2018-11-10T15:10:34.010Z,13.38
2018-11-10T15:13:02.092Z,12.45
2018-11-10T15:15:30.169Z,12.40
2018-11-10T15:17:58.283Z,11.75
2018-11-10T15:20:26.348Z,10.95
2018-11-10T15:22:54.434Z,12.05
2018-11-10T15:25:22.681Z,14.05
2018-11-10T15:27:50.676Z,13.83
2018-11-10T15:30:20.008Z,11.25
2018-11-10T15:32:48.513Z,10.08
2018-11-10T15:35:17.914Z,15.85
2018-11-10T15:37:47.445Z,11.73
2018-11-10T15:40:16.038Z,12.58
2018-11-10T15:42:44.328Z,12.93
2018-11-10T15:45:13.437Z,10.00
2018-11-10T15:47:42.029Z,12.30
2018-11-10T15:50:11.749Z,9.33
2018-11-10T15:52:39.837Z,7.15
2018-11-10T15:55:08.856Z,8.93
2018-11-10T15:57:37.956Z,10.03
2018-11-10T16:00:07.520Z,7.78
2018-11-10T16:02:35.601Z,10.45
2018-11-10T16:05:03.693Z,11.28
2018-11-10T16:07:31.785Z,10.48
2018-11-10T16:09:59.898Z,7.45
2018-11-10T16:12:28.397Z,6.78
2018-11-10T16:14:56.453Z,6.75
2018-11-10T16:17:24.520Z,7.42
2018-11-10T16:19:52.589Z,10.38
2018-11-10T16:22:20.696Z,6.20
2018-11-10T16:24:48.906Z,7.25
2018-11-10T16:27:17.134Z,12.40
2018-11-10T16:29:45.189Z,16.93
2018-11-10T16:32:13.253Z,7.47
2018-11-10T16:34:41.325Z,11.38
2018-11-10T16:37:09.693Z,7.42
2018-11-10T16:39:37.650Z,8.10
2018-11-10T16:42:06.169Z,7.67
2018-11-10T16:44:34.332Z,8.35
2018-11-10T16:47:02.388Z,6.42
2018-11-10T16:49:30.440Z,6.47
2018-11-10T16:51:58.509Z,4.58
2018-11-10T16:54:26.775Z,4.00
2018-11-10T16:56:54.842Z,3.62
2018-11-10T16:59:22.900Z,3.80
2018-11-10T17:01:50.961Z,6.35
2018-11-10T17:04:19.022Z,5.75
2018-11-10T17:06:47.089Z,5.25
2018-11-10T17:09:15.145Z,7.05
2018-11-10T17:11:43.224Z,4.72
2018-11-10T17:14:11.753Z,5.58
2018-11-10T17:16:40.565Z,7.08
2018-11-10T17:19:09.666Z,7.60
2018-11-10T17:21:37.795Z,11.48
2018-11-10T17:24:05.869Z,5.25
2018-11-10T17:26:33.949Z,4.95
2018-11-10T17:29:02.092Z,7.15
2018-11-10T17:31:30.209Z,5.20
2018-11-10T17:33:58.589Z,5.20
2018-11-10T17:36:26.984Z,5.45
2018-11-10T17:38:55.097Z,5.50
2018-11-10T17:41:23.882Z,4.35
2018-11-10T17:43:51.964Z,5.60
2018-11-10T17:46:20.061Z,5.37
2018-11-10T17:48:48.146Z,4.60
2018-11-10T17:51:16.217Z,5.35
2018-11-10T17:53:44.309Z,14.87
2018-11-10T17:56:12.449Z,6.33
2018-11-10T17:58:40.563Z,4.85
2018-11-10T18:01:08.613Z,6.83
2018-11-10T18:03:36.740Z,4.75
2018-11-10T18:06:05.021Z,3.10
2018-11-10T18:08:33.118Z,4.72
2018-11-10T18:11:01.193Z,3.12
2018-11-10T18:13:29.307Z,3.85
2018-11-10T18:15:57.389Z,6.12
2018-11-10T18:18:25.453Z,5.67
2018-11-10T18:20:53.516Z,4.12
2018-11-10T18:23:21.586Z,7.30
2018-11-10T18:25:49.645Z,4.90
2018-11-10T18:28:17.721Z,2.70
2018-11-10T18:30:45.793Z,4.75
2018-11-10T18:33:13.880Z,7.00
2018-11-10T18:35:41.945Z,6.60
2018-11-10T18:38:10.010Z,4.42
2018-11-10T18:40:38.080Z,4.72
2018-11-10T18:43:06.157Z,3.50
2018-11-10T18:45:34.218Z,4.83
2018-11-10T18:48:02.281Z,4.50
2018-11-10T18:50:30.332Z,2.60
2018-11-10T18:52:58.412Z,7.25
2018-11-10T18:55:26.502Z,3.92
2018-11-10T18:57:54.641Z,3.90
2018-11-10T19:00:22.672Z,4.00
2018-11-10T19:02:50.775Z,3.80
2018-11-10T19:05:18.852Z,3.95
2018-11-10T19:07:46.961Z,4.05
2018-11-10T19:10:16.362Z,7.22
2018-11-10T19:12:44.530Z,3.83
2018-11-10T19:15:16.005Z,9.68
2018-11-10T19:17:44.173Z,10.35
2018-11-10T19:20:13.097Z,7.35
2018-11-10T19:22:41.614Z,8.30
2018-11-10T19:25:11.244Z,7.37
2018-11-10T19:27:39.357Z,5.50
2018-11-10T19:30:12.201Z,3.10
2018-11-10T19:32:40.377Z,4.85
2018-11-10T19:35:08.460Z,6.70
2018-11-10T19:37:36.540Z,7.17
2018-11-10T19:40:05.816Z,10.70
2018-11-10T19:42:33.886Z,17.85
2018-11-10T19:45:01.988Z,5.53
2018-11-10T19:47:30.261Z,5.80
2018-11-10T19:49:58.372Z,6.40
2018-11-10T19:52:26.429Z,4.97
2018-11-10T19:54:54.572Z,9.25
2018-11-10T19:57:22.657Z,8.45
2018-11-10T19:59:50.736Z,9.93
2018-11-10T20:02:18.917Z,10.30
2018-11-10T20:04:47.017Z,11.00
2018-11-10T20:07:15.101Z,8.45
2018-11-10T20:09:43.293Z,8.98
2018-11-10T20:12:11.368Z,7.85
2018-11-10T20:14:39.450Z,9.53
2018-11-10T20:17:07.617Z,10.60
2018-11-10T20:19:35.754Z,10.05
2018-11-10T20:22:03.815Z,8.48
2018-11-10T20:24:32.701Z,9.50
2018-11-10T20:27:00.786Z,10.35
2018-11-10T20:29:28.877Z,18.27
2018-11-10T20:31:56.959Z,7.28
2018-11-10T20:34:25.068Z,11.20
2018-11-10T20:36:53.153Z,10.38
2018-11-10T20:39:21.272Z,10.32
2018-11-10T20:41:49.357Z,8.88
2018-11-10T20:44:17.437Z,10.08
2018-11-10T20:46:45.520Z,6.37
2018-11-10T20:49:13.604Z,8.88
2018-11-10T20:51:41.689Z,9.08
2018-11-10T20:54:09.785Z,10.80
2018-11-10T20:56:37.886Z,12.82
2018-11-10T20:59:05.997Z,7.72
2018-11-10T21:01:34.093Z,7.72
2018-11-10T21:04:02.177Z,5.75
2018-11-10T21:06:30.277Z,7.78
2018-11-10T21:08:58.360Z,6.80
2018-11-10T21:11:26.523Z,6.33
2018-11-10T21:13:54.601Z,7.67
2018-11-10T21:16:22.808Z,5.37
2018-11-10T21:18:50.881Z,4.05
2018-11-10T21:21:18.956Z,3.87
2018-11-10T21:23:47.013Z,2.22
2018-11-10T21:26:15.089Z,5.60
2018-11-10T21:28:43.206Z,3.15
2018-11-10T21:31:11.219Z,7.65
2018-11-10T21:33:39.405Z,2.30
2018-11-10T21:36:07.340Z,3.40
2018-11-10T21:38:35.393Z,4.22
2018-11-10T21:41:03.521Z,2.60
2018-11-10T21:43:31.639Z,3.12
2018-11-10T21:45:59.656Z,3.60
2018-11-10T21:48:27.707Z,4.42
2018-11-10T21:50:55.773Z,3.08
2018-11-10T21:53:23.832Z,9.00
2018-11-10T21:55:51.893Z,4.70
2018-11-10T21:58:19.957Z,6.25
2018-11-10T22:00:48.032Z,3.65
2018-11-10T22:03:16.097Z,3.37
2018-11-10T22:05:44.157Z,3.08
2018-11-10T22:08:12.225Z,4.83
2018-11-10T22:10:40.280Z,5.78
2018-11-10T22:13:08.373Z,8.40
2018-11-10T22:15:36.444Z,5.85
2018-11-10T22:18:04.609Z,2.08
2018-11-10T22:20:32.690Z,3.98
2018-11-10T22:23:00.839Z,3.27
2018-11-10T22:25:28.873Z,4.87
2018-11-10T22:27:56.952Z,3.33
2018-11-10T22:30:25.029Z,5.50
2018-11-10T22:32:53.136Z,12.03
2018-11-10T22:35:21.221Z,3.52
2018-11-10T22:37:49.293Z,4.67
2018-11-10T22:40:18.712Z,4.50
2018-11-10T22:42:47.117Z,4.60
2018-11-10T22:45:16.521Z,4.25
2018-11-10T22:47:44.644Z,5.45
2018-11-10T22:50:14.937Z,6.08
2018-11-10T22:52:43.440Z,4.45
2018-11-10T22:55:11.633Z,4.33
2018-11-10T22:57:39.917Z,6.78
2018-11-10T23:00:16.605Z,4.45
2018-11-10T23:02:47.564Z,7.47
2018-11-10T23:05:16.070Z,16.20
2018-11-10T23:07:44.165Z,6.33
2018-11-10T23:10:13.042Z,4.30
2018-11-10T23:12:41.229Z,6.80
2018-11-10T23:15:09.509Z,7.55
2018-11-10T23:17:37.714Z,7.75
2018-11-10T23:20:07.017Z,7.20
2018-11-10T23:22:35.629Z,7.67
2018-11-10T23:25:03.697Z,10.68
2018-11-10T23:27:31.760Z,9.78
2018-11-10T23:29:59.829Z,9.05
2018-11-10T23:32:27.894Z,11.05
2018-11-10T23:34:55.957Z,15.25
2018-11-10T23:37:24.021Z,10.88
2018-11-10T23:39:52.097Z,12.75
2018-11-10T23:42:20.165Z,11.53
2018-11-10T23:44:48.236Z,13.68
2018-11-10T23:47:16.293Z,10.38
2018-11-10T23:49:44.361Z,14.75
2018-11-10T23:52:12.421Z,12.45
2018-11-10T23:54:40.488Z,10.35
2018-11-10T23:57:08.555Z,13.72
2018-11-10T23:59:36.625Z,13.48
